Time;durP1;ratioP1;P1;durP2;ratioP2;P2;SDS_P1;SDS_P2;PMS_P1;PMS_P2;Temp;Humidity;BMP_temperature;BMP_pressure;BME280_temperature;BME280_humidity;BME280_pressure;Samples;Min_cycle;Max_cycle;Signal;HPM_P1;HPM_P2
2022/07/14 00:02:13;;;;;;;;;3.50;0.00;;;;;19.35;53.65;102170.09;5027453;28;8830;-66
2022/07/14 00:04:39;;;;;;;;;0.00;0.00;;;;;19.33;53.76;102166.75;5019699;28;8940;-67
2022/07/14 00:07:06;;;;;;;;;0.00;0.00;;;;;19.31;53.84;102161.50;5027247;28;9556;-67
2022/07/14 00:09:32;;;;;;;;;1.00;1.00;;;;;19.30;53.68;102170.75;5030800;28;8794;-66
2022/07/14 00:11:59;;;;;;;;;0.00;0.00;;;;;19.25;53.98;102156.94;5026146;28;9537;-67
2022/07/14 00:14:25;;;;;;;;;0.00;0.00;;;;;19.25;54.21;102159.69;5027723;28;8806;-67
2022/07/14 00:16:52;;;;;;;;;0.00;0.00;;;;;19.23;54.31;102159.03;5010766;28;8939;-67
2022/07/14 00:19:19;;;;;;;;;0.00;0.00;;;;;19.22;54.51;102160.09;5013391;28;8876;-67
2022/07/14 00:21:46;;;;;;;;;0.25;0.00;;;;;19.20;54.48;102156.75;5019096;28;8955;-66
2022/07/14 00:24:13;;;;;;;;;0.75;0.75;;;;;19.15;54.62;102157.41;5013018;28;8910;-68
2022/07/14 00:26:39;;;;;;;;;0.50;0.50;;;;;19.14;54.75;102157.63;5030519;28;8842;-66
2022/07/14 00:29:07;;;;;;;;;0.00;0.00;;;;;19.10;54.86;102159.13;5028556;28;8903;-67
2022/07/14 00:31:34;;;;;;;;;0.00;0.00;;;;;19.09;54.80;102158.28;5022540;28;8964;-67
2022/07/14 00:34:01;;;;;;;;;0.00;0.00;;;;;19.06;54.75;102157.91;5022005;28;8846;-67
2022/07/14 00:36:27;;;;;;;;;0.00;0.00;;;;;19.01;54.70;102145.75;5030483;28;8996;-68
2022/07/14 00:38:55;;;;;;;;;0.50;0.00;;;;;18.99;54.75;102164.22;5030499;28;9584;-66
2022/07/14 00:41:22;;;;;;;;;0.00;0.00;;;;;18.97;54.95;102160.03;5027621;28;8961;-67
2022/07/14 00:43:49;;;;;;;;;1.75;1.75;;;;;18.94;54.93;102155.00;5024602;28;8830;-67
2022/07/14 00:46:15;;;;;;;;;0.00;0.00;;;;;18.93;54.64;102158.81;5030159;28;8818;-67
2022/07/14 00:48:42;;;;;;;;;0.00;0.00;;;;;18.91;54.85;102150.81;5011452;28;8848;-68
2022/07/14 00:51:09;;;;;;;;;0.00;0.00;;;;;18.90;54.58;102151.03;5025046;28;8854;-65
2022/07/14 00:53:35;;;;;;;;;0.00;0.00;;;;;18.89;54.79;102160.28;5020569;28;8817;-66
2022/07/14 00:56:02;;;;;;;;;0.50;0.50;;;;;18.86;54.82;102161.56;5024294;28;9607;-67
2022/07/14 00:58:29;;;;;;;;;0.00;0.00;;;;;18.85;54.64;102154.44;5036707;28;8834;-66
2022/07/14 01:00:55;;;;;;;;;0.00;0.00;;;;;18.84;54.96;102160.94;5036578;28;8818;-66
2022/07/14 01:03:22;;;;;;;;;0.00;0.00;;;;;18.81;54.83;102169.56;5029477;28;8841;-67
2022/07/14 01:05:48;;;;;;;;;0.00;0.00;;;;;18.78;54.98;102159.91;5028476;28;8876;-67
2022/07/14 01:08:14;;;;;;;;;0.00;0.00;;;;;18.76;54.89;102162.03;5031024;28;8960;-66
2022/07/14 01:10:41;;;;;;;;;0.00;0.00;;;;;18.74;55.01;102169.59;5031366;28;8899;-67
2022/07/14 01:13:08;;;;;;;;;1.25;1.25;;;;;18.71;55.23;102155.53;5036825;28;8870;-66
2022/07/14 01:15:35;;;;;;;;;0.50;0.00;;;;;18.66;55.41;102147.97;5027410;28;8837;-67
2022/07/14 01:18:03;;;;;;;;;0.25;0.00;;;;;18.63;55.46;102145.66;5019606;28;8836;-66
2022/07/14 01:20:30;;;;;;;;;0.00;0.00;;;;;18.61;55.37;102138.78;5028090;28;8826;-67
2022/07/14 01:22:56;;;;;;;;;0.00;0.00;;;;;18.56;55.83;102144.88;5036386;28;8834;-67
2022/07/14 01:25:23;;;;;;;;;1.50;1.00;;;;;18.52;56.05;102143.63;5036386;28;8896;-67
2022/07/14 01:27:49;;;;;;;;;0.00;0.00;;;;;18.49;55.76;102144.06;5033684;28;10441;-67
2022/07/14 01:30:16;;;;;;;;;0.00;0.00;;;;;18.48;56.18;102147.84;5026225;28;8830;-67
2022/07/14 01:32:43;;;;;;;;;0.00;0.00;;;;;18.45;56.25;102134.63;5027981;28;8846;-67
2022/07/14 01:35:10;;;;;;;;;0.00;0.00;;;;;18.40;56.28;102134.44;5034471;28;8858;-67
2022/07/14 01:37:36;;;;;;;;;1.25;1.00;;;;;18.36;56.11;102138.66;5024656;28;8845;-67
2022/07/14 01:40:06;;;;;;;;;1.00;0.25;;;;;18.33;56.28;102136.34;5023123;28;8849;-67
2022/07/14 01:42:34;;;;;;;;;0.25;0.25;;;;;18.29;56.54;102133.22;5036554;28;8826;-67
2022/07/14 01:45:02;;;;;;;;;0.00;0.00;;;;;18.26;56.58;102129.00;5027009;28;8861;-67
2022/07/14 01:47:28;;;;;;;;;3.00;1.00;;;;;18.24;56.62;102125.69;5034143;28;8842;-67
2022/07/14 01:49:55;;;;;;;;;0.00;0.00;;;;;18.20;56.90;102129.88;5034977;28;8825;-66
2022/07/14 01:52:22;;;;;;;;;1.00;1.00;;;;;18.14;57.15;102122.53;5034575;28;8860;-67
2022/07/14 01:54:49;;;;;;;;;1.00;1.00;;;;;18.12;57.30;102127.38;5037419;28;8831;-67
2022/07/14 01:57:15;;;;;;;;;1.25;1.00;;;;;18.10;57.63;102123.19;5034128;28;8822;-66
2022/07/14 01:59:43;;;;;;;;;0.75;0.75;;;;;18.03;57.55;102124.06;5051601;28;8830;-67
2022/07/14 02:02:12;;;;;;;;;0.00;0.00;;;;;18.01;57.64;102131.59;5034625;28;8846;-66
2022/07/14 02:04:39;;;;;;;;;0.00;0.00;;;;;18.00;57.69;102140.00;5040688;28;8837;-66
2022/07/14 02:07:05;;;;;;;;;0.75;0.50;;;;;18.00;57.64;102148.16;5029812;28;9521;-67
2022/07/14 02:12:41;;;;;;;;;1.75;1.00;;;;;17.98;57.59;102139.34;5048566;28;8912;-67
2022/07/14 02:15:10;;;;;;;;;0.25;0.25;;;;;17.92;58.11;102132.03;5041377;28;8958;-67
2022/07/14 02:17:37;;;;;;;;;1.25;1.25;;;;;17.90;58.09;102131.41;5031691;28;8818;-67
2022/07/14 02:20:05;;;;;;;;;1.00;1.00;;;;;17.87;58.44;102134.56;5032553;28;8829;-67
2022/07/14 02:22:31;;;;;;;;;1.00;1.00;;;;;17.85;58.27;102133.91;5029044;28;9802;-67
2022/07/14 02:24:58;;;;;;;;;1.25;0.25;;;;;17.83;58.41;102139.59;5026393;28;8844;-67
2022/07/14 02:27:25;;;;;;;;;4.00;1.00;;;;;17.79;58.48;102135.63;5031332;28;8838;-66
2022/07/14 02:29:51;;;;;;;;;0.50;0.50;;;;;17.76;58.39;102138.75;5030007;28;8849;-66
2022/07/14 02:32:18;;;;;;;;;3.00;1.50;;;;;17.67;58.51;102135.38;5021474;28;8866;-68
2022/07/14 02:34:45;;;;;;;;;1.00;1.00;;;;;17.62;58.63;102132.41;5018659;28;8822;-67
2022/07/14 02:37:12;;;;;;;;;1.00;1.00;;;;;17.59;59.27;102129.31;5027512;28;8829;-67
2022/07/14 02:39:39;;;;;;;;;0.00;0.00;;;;;17.56;59.15;102136.00;5045520;28;8924;-67
2022/07/14 02:42:06;;;;;;;;;1.00;1.00;;;;;17.55;59.06;102145.22;5047946;28;8822;-68
2022/07/14 02:44:35;;;;;;;;;5.00;2.00;;;;;17.52;59.11;102143.75;5030885;28;8818;-68
2022/07/14 02:47:01;;;;;;;;;0.75;0.00;;;;;17.49;59.48;102146.03;5047705;28;8837;-68
2022/07/14 02:49:28;;;;;;;;;2.00;2.00;;;;;17.46;59.24;102139.16;5032773;28;8866;-67
2022/07/14 02:51:55;;;;;;;;;2.00;2.00;;;;;17.44;59.38;102138.50;5030953;28;8842;-67
2022/07/14 02:54:22;;;;;;;;;2.00;2.00;;;;;17.43;59.22;102138.72;5031997;28;9541;-68
2022/07/14 02:56:48;;;;;;;;;2.00;1.00;;;;;17.36;59.59;102125.09;5031283;28;8896;-67
2022/07/14 02:59:15;;;;;;;;;2.25;2.25;;;;;17.37;59.52;102136.81;5022345;28;8833;-67
2022/07/14 03:01:46;;;;;;;;;2.00;2.00;;;;;17.36;59.77;102129.69;5024853;28;9585;-67
2022/07/14 03:04:18;;;;;;;;;0.67;0.67;;;;;17.36;59.67;102140.59;5028000;28;8873;-67
2022/07/14 03:06:45;;;;;;;;;2.25;0.00;;;;;17.40;59.93;102134.53;5040994;28;8906;-67
2022/07/14 03:09:16;;;;;;;;;1.50;0.75;;;;;17.42;59.18;102137.88;5030510;28;8829;-67
2022/07/14 03:11:42;;;;;;;;;1.00;0.00;;;;;17.44;59.04;102138.50;5047216;28;8838;-68
2022/07/14 03:14:09;;;;;;;;;1.75;1.00;;;;;17.46;59.21;102141.00;5031770;28;8818;-68
2022/07/14 03:16:35;;;;;;;;;1.00;1.00;;;;;17.48;59.14;102130.75;5028192;28;9675;-68
2022/07/14 03:19:06;;;;;;;;;0.25;0.00;;;;;17.48;58.89;102130.75;5023027;28;8900;-67
2022/07/14 03:21:33;;;;;;;;;0.75;0.75;;;;;17.49;58.96;102133.25;5027322;28;8835;-68
2022/07/14 03:24:01;;;;;;;;;2.00;1.25;;;;;17.51;58.87;102133.06;5011510;28;8813;-67
2022/07/14 03:26:30;;;;;;;;;0.00;0.00;;;;;17.51;58.97;102133.06;5025637;28;8891;-67
2022/07/14 03:28:57;;;;;;;;;1.00;0.00;;;;;17.50;58.78;102129.50;5021891;28;8836;-67
2022/07/14 03:31:24;;;;;;;;;3.00;1.00;;;;;17.49;59.01;102127.81;5018481;28;8930;-66
2022/07/14 03:33:52;;;;;;;;;1.00;0.00;;;;;17.50;58.71;102124.06;5030520;28;9568;-68
2022/07/14 03:36:23;;;;;;;;;0.50;0.25;;;;;17.49;59.00;102132.44;5029993;28;8819;-66
2022/07/14 03:38:49;;;;;;;;;0.00;0.00;;;;;17.48;59.00;102128.03;5022300;28;8809;-66
2022/07/14 03:41:16;;;;;;;;;2.00;0.25;;;;;17.45;58.83;102125.72;5025952;28;9620;-67
2022/07/14 03:43:43;;;;;;;;;0.75;0.50;;;;;17.42;59.27;102143.31;5025861;28;8834;-67
2022/07/14 03:46:12;;;;;;;;;1.00;0.75;;;;;17.39;59.46;102140.19;5029229;28;8818;-68
2022/07/14 03:48:44;;;;;;;;;0.00;0.00;;;;;17.36;59.11;102143.31;5012676;28;8840;-67
2022/07/14 03:51:12;;;;;;;;;1.25;1.00;;;;;17.34;59.39;102140.81;5044423;28;8837;-67
2022/07/14 03:53:40;;;;;;;;;0.00;0.00;;;;;17.32;59.47;102139.31;5029816;28;9024;-68
2022/07/14 03:56:07;;;;;;;;;0.00;0.00;;;;;17.28;59.52;102130.72;5030288;28;8826;-68
2022/07/14 03:58:41;;;;;;;;;0.25;0.25;;;;;17.24;59.64;102133.03;5022136;28;9564;-67
2022/07/14 04:01:08;;;;;;;;;1.00;1.00;;;;;17.23;59.48;102133.25;5031740;28;8850;-67
2022/07/14 04:03:36;;;;;;;;;1.00;1.00;;;;;17.21;59.76;102128.00;5025348;28;8864;-65
2022/07/14 04:06:03;;;;;;;;;0.33;0.33;;;;;17.20;59.59;102129.03;5029241;28;8981;-67
2022/07/14 04:08:29;;;;;;;;;0.33;0.33;;;;;17.18;59.52;102114.81;5024407;28;8998;-67
2022/07/14 04:10:59;;;;;;;;;0.00;0.00;;;;;17.15;59.56;102111.69;5034955;28;9074;-67
2022/07/14 04:13:26;;;;;;;;;0.67;0.67;;;;;17.13;60.14;102117.31;5028526;28;8979;-65
2022/07/14 04:15:53;;;;;;;;;0.00;0.00;;;;;17.12;60.13;102112.09;5025907;28;9186;-66
2022/07/14 04:18:20;;;;;;;;;0.00;0.00;;;;;17.11;60.17;102105.81;5009660;28;8975;-67
2022/07/14 04:20:49;;;;;;;;;0.67;0.00;;;;;17.14;60.10;102107.28;5024882;28;9679;-67
2022/07/14 04:23:17;;;;;;;;;0.00;0.00;;;;;17.15;60.26;102114.41;5029474;28;9003;-68
2022/07/14 04:25:44;;;;;;;;;0.00;0.00;;;;;17.18;60.23;102112.09;5026590;28;8920;-67
2022/07/14 04:28:11;;;;;;;;;0.00;0.00;;;;;17.18;60.11;102111.28;5025609;28;8945;-68
2022/07/14 04:30:39;;;;;;;;;1.00;1.00;;;;;17.17;60.01;102112.28;5019497;28;9102;-67
2022/07/14 04:33:12;;;;;;;;;0.67;0.67;;;;;17.17;60.30;102118.56;5031768;23;9028;-66
2022/07/14 04:35:42;;;;;;;;;2.00;1.00;;;;;17.17;60.25;102118.56;5045703;28;9014;-64
2022/07/14 04:38:09;;;;;;;;;0.00;0.00;;;;;17.18;60.20;102112.09;5028745;28;8960;-65
2022/07/14 04:40:49;;;;;;;;;0.00;0.00;;;;;17.19;60.16;102118.38;5024087;28;8872;-63
2022/07/14 04:43:17;;;;;;;;;1.00;0.00;;;;;17.19;60.29;102116.50;5028582;28;8853;-64
2022/07/14 04:45:48;;;;;;;;;1.00;1.00;;;;;17.20;60.66;102120.88;5034329;28;8917;-63
2022/07/14 04:48:15;;;;;;;;;0.67;0.00;;;;;17.19;60.58;102113.78;5045630;28;9070;-64
2022/07/14 04:53:28;;;;;;;;;0.67;0.67;;;;;17.24;60.64;102121.31;5027451;28;9549;-64
2022/07/14 04:56:08;;;;;;;;;0.00;0.00;;;;;17.24;60.43;102116.69;5021059;28;9004;-63
2022/07/14 04:58:39;;;;;;;;;1.50;0.00;;;;;17.28;60.20;102115.25;5025516;28;8832;-64
2022/07/14 05:01:06;;;;;;;;;1.00;1.00;;;;;17.29;60.49;102114.19;5039809;28;8829;-63
2022/07/14 05:03:38;;;;;;;;;0.50;0.50;;;;;17.33;60.52;102113.78;5021511;28;8842;-62
2022/07/14 05:06:04;;;;;;;;;2.00;0.00;;;;;17.34;60.80;102110.88;5030104;28;9607;-66
2022/07/14 05:08:32;;;;;;;;;2.00;2.00;;;;;17.36;60.25;102116.09;5025782;28;8849;-65
2022/07/14 05:10:59;;;;;;;;;1.25;1.00;;;;;17.38;60.79;102116.72;5028461;28;8849;-66
2022/07/14 05:13:30;;;;;;;;;2.75;1.00;;;;;17.42;60.38;102115.25;5029709;28;8984;-66
2022/07/14 05:15:57;;;;;;;;;1.00;1.00;;;;;17.44;60.57;102108.56;5011141;28;9552;-65
2022/07/14 05:18:24;;;;;;;;;1.00;1.00;;;;;17.48;59.96;102109.81;5028065;28;8830;-64
2022/07/14 05:20:51;;;;;;;;;1.25;1.00;;;;;17.51;60.16;102100.41;5027794;28;8849;-65
2022/07/14 05:23:26;;;;;;;;;0.75;0.75;;;;;17.55;59.84;102102.50;5017119;28;8883;-64
2022/07/14 05:25:54;;;;;;;;;1.00;1.00;;;;;17.59;59.52;102102.91;5044609;28;8934;-64
2022/07/14 05:28:20;;;;;;;;;0.00;0.00;;;;;17.64;59.81;102105.84;5028035;28;8826;-64
2022/07/14 05:30:57;;;;;;;;;1.75;1.00;;;;;17.66;59.38;102105.63;5027324;28;8834;-65
2022/07/14 05:33:30;;;;;;;;;0.00;0.00;;;;;17.69;59.26;102108.75;5027833;28;8869;-65
2022/07/14 05:35:57;;;;;;;;;2.00;0.50;;;;;17.74;59.68;102110.84;5028256;28;8969;-65
2022/07/14 05:38:25;;;;;;;;;1.00;1.00;;;;;17.82;59.38;102112.53;5022209;28;8825;-65
2022/07/14 05:40:52;;;;;;;;;0.50;0.50;;;;;18.01;59.41;102114.41;5024653;28;9567;-65
2022/07/14 05:43:20;;;;;;;;;1.00;1.00;;;;;18.25;59.36;102127.34;5030505;28;8830;-64
2022/07/14 05:45:54;;;;;;;;;1.00;1.00;;;;;18.49;58.29;102127.69;5032010;28;8864;-64
2022/07/14 05:48:21;;;;;;;;;0.00;0.00;;;;;18.70;57.87;102121.13;5030691;28;8866;-66
2022/07/14 05:50:48;;;;;;;;;0.00;0.00;;;;;18.92;56.97;102133.41;5022729;28;8818;-66
2022/07/14 05:53:15;;;;;;;;;0.00;0.00;;;;;19.11;56.02;102128.03;5029220;28;8864;-64
2022/07/14 05:55:42;;;;;;;;;1.00;1.00;;;;;19.29;56.00;102127.31;5031224;28;8870;-65
2022/07/14 05:58:09;;;;;;;;;0.00;0.00;;;;;19.42;55.16;102138.13;5039228;28;8825;-65
2022/07/14 06:00:35;;;;;;;;;0.75;0.75;;;;;19.49;54.93;102130.72;5031848;28;8826;-65
2022/07/14 06:03:02;;;;;;;;;0.50;0.00;;;;;19.58;54.86;102123.94;5047361;28;9588;-65
2022/07/14 06:05:33;;;;;;;;;1.00;0.00;;;;;19.65;54.47;102129.38;5043722;28;8854;-66
2022/07/14 06:08:00;;;;;;;;;0.00;0.00;;;;;19.69;54.44;102130.59;5024718;28;8904;-66
2022/07/14 06:10:27;;;;;;;;;1.00;1.00;;;;;19.67;53.98;102130.81;5029677;28;9002;-65
2022/07/14 06:12:57;;;;;;;;;1.50;1.50;;;;;19.63;53.83;102135.03;5028804;28;8838;-64
2022/07/14 06:15:24;;;;;;;;;0.00;0.00;;;;;19.62;53.70;102133.38;5023445;28;8818;-64
2022/07/14 06:17:52;;;;;;;;;0.00;0.00;;;;;19.62;53.64;102129.81;5018056;28;8917;-67
2022/07/14 06:20:20;;;;;;;;;1.00;1.00;;;;;19.57;53.77;102127.72;5025020;28;8824;-65
2022/07/14 06:22:47;;;;;;;;;0.00;0.00;;;;;19.58;53.66;102128.56;5024258;28;8898;-66
2022/07/14 06:25:14;;;;;;;;;0.00;0.00;;;;;19.48;53.62;102132.59;5044606;28;8827;-66
2022/07/14 06:27:40;;;;;;;;;0.00;0.00;;;;;19.44;53.56;102125.91;5024914;28;8822;-63
2022/07/14 06:30:09;;;;;;;;;0.25;0.25;;;;;19.36;52.97;102123.44;5024214;28;8861;-66
2022/07/14 06:32:39;;;;;;;;;0.25;0.00;;;;;19.32;53.22;102115.94;5030462;28;8984;-64
2022/07/14 06:35:09;;;;;;;;;0.25;0.25;;;;;19.30;53.35;102109.88;5047339;28;8957;-65
2022/07/14 06:37:36;;;;;;;;;0.50;0.00;;;;;19.29;53.79;102109.03;5047005;28;8822;-64
2022/07/14 06:40:05;;;;;;;;;2.00;2.00;;;;;19.27;53.72;102106.50;5030566;28;8919;-64
2022/07/14 06:42:35;;;;;;;;;0.25;0.25;;;;;19.20;54.10;102111.19;5019045;28;8852;-66
2022/07/14 06:45:14;;;;;;;;;0.00;0.00;;;;;19.14;53.94;102103.88;5043089;28;8842;-64
2022/07/14 06:47:40;;;;;;;;;1.00;1.00;;;;;19.15;54.10;102091.06;5025717;28;8825;-66
2022/07/14 06:50:07;;;;;;;;;2.25;0.50;;;;;19.16;53.64;102088.13;5025641;28;8854;-66
2022/07/14 06:52:35;;;;;;;;;1.25;0.75;;;;;19.11;53.86;102087.09;5019265;28;8825;-66
2022/07/14 06:55:04;;;;;;;;;0.25;0.25;;;;;19.14;53.86;102082.03;5024065;28;8838;-66
2022/07/14 06:57:30;;;;;;;;;0.00;0.00;;;;;19.15;53.66;102082.88;5031632;28;9551;-65
2022/07/14 06:59:56;;;;;;;;;1.00;1.00;;;;;19.09;53.44;102078.31;5023775;28;8817;-66
2022/07/14 07:02:23;;;;;;;;;0.00;0.00;;;;;19.09;53.74;102081.03;5020097;28;9738;-65
2022/07/14 07:06:43;;;;;;;;;0.00;0.00;;;;;18.95;54.08;102077.53;5022330;28;8834;-66
2022/07/14 07:07:36;;;;;;;;;0.75;0.75;;;;;18.98;54.30;102077.13;5020447;28;8821;-65
2022/07/14 07:10:03;;;;;;;;;1.25;0.75;;;;;18.95;52.60;102072.09;5017536;28;8825;-65
2022/07/14 07:12:30;;;;;;;;;0.50;0.50;;;;;18.89;52.52;102073.00;5020353;28;8971;-65
2022/07/14 07:14:56;;;;;;;;;0.25;0.25;;;;;18.92;52.41;102078.84;5022912;28;8826;-64
2022/07/14 07:17:23;;;;;;;;;0.25;0.25;;;;;18.87;52.13;102075.09;5024159;28;8830;-64
2022/07/14 07:19:49;;;;;;;;;0.00;0.00;;;;;18.87;52.38;102080.53;5023753;28;8810;-64
2022/07/14 07:22:16;;;;;;;;;0.00;0.00;;;;;18.94;52.36;102090.34;5024396;28;8871;-64
2022/07/14 07:24:42;;;;;;;;;0.00;0.00;;;;;19.01;52.04;102088.44;5032776;28;8884;-64
2022/07/14 07:27:09;;;;;;;;;0.00;0.00;;;;;19.04;51.95;102087.16;5023139;28;8842;-65
2022/07/14 07:29:36;;;;;;;;;0.25;0.25;;;;;19.03;51.83;102083.56;5023223;28;9627;-66
2022/07/14 07:32:03;;;;;;;;;1.00;1.00;;;;;19.07;51.75;102083.97;5027129;28;8838;-65
2022/07/14 07:34:29;;;;;;;;;2.00;0.00;;;;;19.10;52.19;102086.28;5023162;28;8868;-65
2022/07/14 07:36:56;;;;;;;;;0.00;0.00;;;;;19.12;52.63;102089.63;5030404;28;8826;-65
2022/07/14 07:39:42;;;;;;;;;0.00;0.00;;;;;19.16;52.72;102082.66;5024095;28;8948;-64
2022/07/14 07:42:08;;;;;;;;;0.00;0.00;;;;;19.19;51.98;102084.94;5031344;28;8849;-64
2022/07/14 07:44:36;;;;;;;;;0.00;0.00;;;;;19.23;51.44;102077.97;5030777;28;8834;-65
2022/07/14 07:47:03;;;;;;;;;0.00;0.00;;;;;19.25;51.54;102078.59;5030581;28;8927;-65
2022/07/14 07:49:29;;;;;;;;;0.75;0.00;;;;;19.26;51.55;102085.72;5044040;28;8947;-65
2022/07/14 07:51:57;;;;;;;;;0.00;0.00;;;;;19.31;51.06;102095.16;5025373;28;8911;-64
2022/07/14 07:54:25;;;;;;;;;0.25;0.25;;;;;19.30;50.42;102093.47;5022122;28;9525;-64
2022/07/14 07:57:12;;;;;;;;;0.00;0.00;;;;;19.31;50.54;102095.97;5022464;28;8928;-65
2022/07/14 07:59:39;;;;;;;;;0.00;0.00;;;;;19.33;50.75;102098.50;5023336;28;8964;-64
2022/07/14 08:02:06;;;;;;;;;1.25;0.00;;;;;19.36;50.80;102095.31;5022308;28;8869;-64
2022/07/14 08:04:33;;;;;;;;;0.00;0.00;;;;;19.37;50.44;102100.56;5021599;28;8810;-65
2022/07/14 08:06:59;;;;;;;;;0.75;0.00;;;;;19.39;50.34;102105.78;5021771;28;8865;-66
2022/07/14 08:09:26;;;;;;;;;0.00;0.00;;;;;19.46;50.86;102095.66;5020364;28;8911;-65
2022/07/14 08:11:53;;;;;;;;;0.25;0.25;;;;;19.52;50.76;102089.28;5021356;28;8830;-65
2022/07/14 08:17:04;;;;;;;;;0.00;0.00;;;;;19.60;50.51;102094.47;5022626;28;8925;-65
2022/07/14 08:19:32;;;;;;;;;0.00;0.00;;;;;19.51;49.87;102091.19;5019232;28;8839;-65
2022/07/14 08:21:59;;;;;;;;;0.50;0.00;;;;;19.51;48.62;102087.63;5019045;28;8869;-65
2022/07/14 08:24:25;;;;;;;;;1.00;1.00;;;;;19.52;49.19;102083.84;5017168;28;8852;-64
2022/07/14 08:26:52;;;;;;;;;0.00;0.00;;;;;19.55;49.86;102077.94;5021675;28;8857;-64
2022/07/14 08:29:18;;;;;;;;;1.00;0.00;;;;;19.54;50.10;102079.00;5020780;28;8858;-65
2022/07/14 08:31:45;;;;;;;;;0.00;0.00;;;;;19.57;50.20;102085.88;5021716;28;8853;-65
2022/07/14 08:34:12;;;;;;;;;0.67;0.67;;;;;19.64;50.33;102079.34;5022696;28;8834;-64
2022/07/14 08:36:39;;;;;;;;;0.00;0.00;;;;;19.71;50.06;102071.91;5020575;28;8968;-64
2022/07/14 08:39:06;;;;;;;;;0.00;0.00;;;;;19.76;49.89;102071.25;5019376;28;8834;-64
2022/07/14 08:41:38;;;;;;;;;0.00;0.00;;;;;19.78;49.72;102071.03;5022190;28;8873;-65
2022/07/14 08:44:05;;;;;;;;;0.00;0.00;;;;;19.83;49.91;102065.72;5025650;28;8826;-65
2022/07/14 08:46:32;;;;;;;;;0.00;0.00;;;;;19.79;49.83;102076.25;5019864;28;8832;-65
2022/07/14 08:48:59;;;;;;;;;0.00;0.00;;;;;19.82;49.62;102069.53;5021479;28;8830;-64
2022/07/14 08:51:26;;;;;;;;;0.25;0.00;;;;;19.88;49.44;102065.88;5020348;28;8896;-64
2022/07/14 08:53:52;;;;;;;;;0.00;0.00;;;;;19.92;49.01;102059.72;5020369;28;9746;-65
2022/07/14 08:56:20;;;;;;;;;2.00;0.00;;;;;19.98;48.21;102060.72;5022077;28;8822;-64
2022/07/14 08:58:47;;;;;;;;;0.00;0.00;;;;;19.99;48.10;102057.75;5023238;28;8963;-65
2022/07/14 09:01:14;;;;;;;;;1.00;1.00;;;;;19.99;47.29;102056.94;5022185;28;8834;-64
2022/07/14 09:03:40;;;;;;;;;0.00;0.00;;;;;20.07;47.67;102059.34;5016435;28;8850;-64
2022/07/14 09:06:47;;;;;;;;;0.00;0.00;;;;;20.17;48.02;102061.53;5033636;28;8930;-67
2022/07/14 09:09:17;;;;;;;;;0.00;0.00;;;;;20.18;48.12;102068.72;5035083;28;8862;-65
2022/07/14 09:11:55;;;;;;;;;1.00;1.00;;;;;20.21;48.05;102060.84;5021715;28;8838;-64
2022/07/14 09:15:44;;;;;;;;;0.00;0.00;;;;;20.29;48.06;102065.19;5021491;28;8834;-65
2022/07/14 09:17:18;;;;;;;;;0.00;0.00;;;;;20.29;48.23;102067.91;5020699;28;8927;-65
2022/07/14 09:20:06;;;;;;;;;1.00;1.00;;;;;20.30;47.82;102064.13;5022055;28;8842;-65
2022/07/14 09:22:36;;;;;;;;;0.00;0.00;;;;;20.33;47.89;102057.34;5024979;28;8863;-63
2022/07/14 09:25:08;;;;;;;;;0.00;0.00;;;;;20.40;47.83;102060.84;5039470;28;8899;-65
2022/07/14 09:27:36;;;;;;;;;1.00;1.00;;;;;20.47;48.06;102064.34;5027649;28;8835;-65
2022/07/14 09:30:05;;;;;;;;;1.00;0.00;;;;;20.60;47.84;102061.47;5022162;28;9557;-65
2022/07/14 09:32:47;;;;;;;;;0.00;0.00;;;;;20.72;47.07;102066.97;5018170;28;8931;-65
2022/07/14 09:35:17;;;;;;;;;1.75;0.25;;;;;20.77;46.83;102064.38;5024193;28;8908;-64
2022/07/14 09:37:44;;;;;;;;;1.00;0.00;;;;;20.77;47.06;102058.91;5048386;28;8983;-66
2022/07/14 09:40:15;;;;;;;;;1.00;0.25;;;;;20.78;47.68;102054.25;5024649;28;8834;-65
2022/07/14 09:43:01;;;;;;;;;0.00;0.00;;;;;20.86;47.87;102059.41;5025470;28;8964;-65
2022/07/14 09:45:30;;;;;;;;;0.00;0.00;;;;;20.85;47.35;102058.56;5023126;28;8853;-65
2022/07/14 09:48:07;;;;;;;;;0.00;0.00;;;;;20.79;47.32;102056.78;5029819;28;8856;-66
2022/07/14 09:50:50;;;;;;;;;1.00;1.00;;;;;20.89;48.27;102057.03;5015296;28;8820;-66
2022/07/14 09:53:29;;;;;;;;;0.00;0.00;;;;;21.01;48.06;102059.81;5022835;28;8818;-66
2022/07/14 09:56:06;;;;;;;;;0.00;0.00;;;;;21.10;47.63;102063.88;5031362;28;8952;-66
2022/07/14 09:58:44;;;;;;;;;0.00;0.00;;;;;21.10;46.70;102058.41;5029107;28;8829;-66
2022/07/14 10:01:16;;;;;;;;;1.25;1.25;;;;;21.12;45.65;102067.22;5022260;28;8944;-64
2022/07/14 10:03:46;;;;;;;;;0.00;0.00;;;;;21.09;46.78;102062.22;5023693;28;8922;-66
2022/07/14 10:06:14;;;;;;;;;1.00;1.00;;;;;21.11;47.84;102062.00;5024800;28;8842;-66
2022/07/14 10:09:01;;;;;;;;;0.00;0.00;;;;;21.14;47.32;102064.25;5028261;28;9696;-67
2022/07/14 10:11:29;;;;;;;;;0.00;0.00;;;;;21.08;47.16;102060.53;5023404;28;8849;-66
2022/07/14 10:13:58;;;;;;;;;1.00;1.00;;;;;21.01;47.52;102064.44;5023483;28;9686;-66
2022/07/14 10:16:30;;;;;;;;;1.00;0.00;;;;;20.96;48.06;102066.00;5031858;28;9608;-66
2022/07/14 10:18:57;;;;;;;;;2.00;1.00;;;;;20.97;47.34;102064.09;5031985;28;8856;-66
2022/07/14 10:21:26;;;;;;;;;0.00;0.00;;;;;20.87;47.28;102059.19;5031747;28;8854;-67
2022/07/14 10:23:54;;;;;;;;;0.00;0.00;;;;;20.87;48.02;102061.94;5012388;28;8922;-66
2022/07/14 10:26:20;;;;;;;;;0.00;0.00;;;;;20.88;47.81;102068.22;5030970;28;8830;-66
2022/07/14 10:28:47;;;;;;;;;0.50;0.50;;;;;20.91;48.16;102063.13;5046270;28;8923;-63
2022/07/14 10:31:26;;;;;;;;;1.00;1.00;;;;;20.97;48.47;102056.69;5021274;28;8825;-66
2022/07/14 10:34:23;;;;;;;;;1.00;0.75;;;;;20.94;48.59;102064.53;5031941;28;8861;-67
2022/07/14 10:37:01;;;;;;;;;0.25;0.00;;;;;20.83;49.14;102054.41;5031819;28;8823;-68
2022/07/14 10:39:49;;;;;;;;;1.00;1.00;;;;;20.73;49.72;102063.16;5025910;28;8859;-66
2022/07/14 10:42:30;;;;;;;;;0.00;0.00;;;;;20.73;49.82;102066.72;5029438;28;8831;-67
2022/07/14 10:44:57;;;;;;;;;0.00;0.00;;;;;20.69;49.09;102068.25;5023440;28;9474;-66
2022/07/14 10:47:25;;;;;;;;;0.00;0.00;;;;;20.67;49.41;102059.47;5029454;28;8967;-66
2022/07/14 10:50:02;;;;;;;;;0.00;0.00;;;;;20.75;49.31;102061.06;5019874;28;8863;-67
2022/07/14 10:52:30;;;;;;;;;1.00;1.00;;;;;20.80;49.12;102063.91;5030116;28;8916;-67
2022/07/14 10:55:16;;;;;;;;;0.00;0.00;;;;;20.74;49.35;102056.63;5029708;28;8968;-66
2022/07/14 10:58:07;;;;;;;;;1.25;0.25;;;;;20.71;49.86;102057.94;5027819;28;8919;-67
2022/07/14 11:00:43;;;;;;;;;0.00;0.00;;;;;20.71;49.92;102065.31;5024653;28;8846;-66
2022/07/14 11:03:22;;;;;;;;;1.00;0.00;;;;;20.79;49.98;102065.00;5024322;28;8949;-67
2022/07/14 11:06:01;;;;;;;;;0.00;0.00;;;;;20.81;49.31;102072.94;5031259;28;9941;-67
2022/07/14 11:09:22;;;;;;;;;0.00;0.00;;;;;20.77;48.96;102067.09;5028559;28;8818;-66
2022/07/14 11:12:11;;;;;;;;;0.00;0.00;;;;;20.77;49.67;102069.00;5024172;28;8900;-66
2022/07/14 11:14:40;;;;;;;;;0.00;0.00;;;;;20.80;50.18;102061.19;5018083;28;8830;-66
2022/07/14 11:17:08;;;;;;;;;0.00;0.00;;;;;20.89;50.06;102067.16;5030108;28;8842;-65
2022/07/14 11:19:38;;;;;;;;;0.00;0.00;;;;;20.98;49.86;102065.75;5022545;28;8826;-66
2022/07/14 11:22:18;;;;;;;;;0.00;0.00;;;;;21.04;49.45;102066.72;5023975;28;8846;-66
2022/07/14 11:24:45;;;;;;;;;0.00;0.00;;;;;20.99;49.48;102068.25;5021166;28;8941;-66
2022/07/14 11:27:26;;;;;;;;;1.00;0.00;;;;;21.05;49.38;102063.75;5027097;28;8822;-65
2022/07/14 11:29:57;;;;;;;;;0.00;0.00;;;;;21.08;48.84;102059.72;5018989;28;8826;-66
2022/07/14 11:32:33;;;;;;;;;1.00;1.00;;;;;21.07;48.61;102069.84;5028243;28;8913;-66
2022/07/14 11:37:57;;;;;;;;;2.00;2.00;;;;;20.94;49.40;102065.41;5023337;28;8821;-66
2022/07/14 11:40:47;;;;;;;;;0.00;0.00;;;;;20.98;49.78;102063.00;5029086;28;8842;-66
2022/07/14 11:43:29;;;;;;;;;0.75;0.75;;;;;21.00;50.76;102058.16;5041538;28;8924;-66
2022/07/14 11:46:01;;;;;;;;;1.00;1.00;;;;;21.03;51.00;102054.94;5025712;28;8850;-66
2022/07/14 11:48:31;;;;;;;;;1.00;1.00;;;;;21.11;50.83;102056.53;5030161;28;8818;-66
2022/07/14 11:51:14;;;;;;;;;0.75;0.75;;;;;21.13;50.58;102062.56;5028295;28;8915;-66
2022/07/14 11:53:41;;;;;;;;;1.25;0.25;;;;;21.21;50.87;102057.59;5022660;28;8881;-66
2022/07/14 11:56:09;;;;;;;;;0.75;0.75;;;;;21.33;49.97;102056.81;5027964;28;8840;-66
2022/07/14 11:58:39;;;;;;;;;0.50;0.50;;;;;21.42;48.15;102055.38;5029924;28;8941;-65